Mh2 Luar — CSHC2 — position and weather

sailwx.info

Track history (hours):
 
Tides and Currents Weather Stations Pressure Air Temp Water Temp Dewpoint Dewpoint Depression Visibility Wind Speed Wind Dir Waves Ship Positions

Mh2 Luar

Last reported at 2018-Jun-25 17:27 UTC. Time now 2018-Jun-25 17:50 UTC.
Position N 38°42' W 009°11'.

Type: Passenger vessel. MMSI: 263753590.

Date/timePositionNaut miles runAvg speedWind from/ knotsBaromVisibWave heightAir tempDewpointWater temp
2018-Jun-25 17:27N 38°42' W 009°11'1 2.5
2018-Jun-25 17:00N 38°42' W 009°12'0 0.6
2018-Jun-25 16:30N 38°42' W 009°12'3 5.4
2018-Jun-25 15:59N 38°42' W 009°09'2 3.0
2018-Jun-25 15:28N 38°42' W 009°10'0 0.5
2018-Jun-25 15:00N 38°42' W 009°11'1 2.2
2018-Jun-25 14:30N 38°42' W 009°12'3 3.7
2018-Jun-25 13:42N 38°42' W 009°08'1 4.4
2018-Jun-25 13:29N 38°42' W 009°10'3 4.6
2018-Jun-25 12:55N 38°42' W 009°13'1 2.2
2018-Jun-25 12:30N 38°42' W 009°12'3 4.9
2018-Jun-25 11:59N 38°42' W 009°09'2 2.9
2018-Jun-25 11:22N 38°42' W 009°11'2 4.0
2018-Jun-25 10:57N 38°42' W 009°13'1 3.0
2018-Jun-25 10:28N 38°42' W 009°11'2 3.1
2018-Jun-25 09:49N 38°42' W 009°09'1 3.8
2018-Jun-25 09:30N 38°42' W 009°10'2 3.7
2018-Jun-25 08:53N 38°42' W 009°13'2 4.4
2018-Jun-25 08:29N 38°42' W 009°11'0 0.0
2018-Jun-25 07:50N 38°42' W 009°11'0 0.0
2018-Jun-25 07:26N 38°42' W 009°11'0 0.0
2018-Jun-25 06:59N 38°42' W 009°11'0 0.0
2018-Jun-25 06:20N 38°42' W 009°11'0 0.0
2018-Jun-25 05:47N 38°42' W 009°11'0 0.0
2018-Jun-25 05:26N 38°42' W 009°11'0 0.0
2018-Jun-25 04:59N 38°42' W 009°11'0 0.0
2018-Jun-25 04:23N 38°42' W 009°11'0 0.0
2018-Jun-25 03:59N 38°42' W 009°11'0 0.0
2018-Jun-25 03:14N 38°42' W 009°11'0 0.0
2018-Jun-25 02:59N 38°42' W 009°11'0 0.0
2018-Jun-25 02:26N 38°42' W 009°11'0 0.0
2018-Jun-25 01:56N 38°42' W 009°11'0 0.0
2018-Jun-25 01:08N 38°42' W 009°11'0 0.0
2018-Jun-25 00:43N 38°42' W 009°11'0 0.0
2018-Jun-25 00:23N 38°42' W 009°11'0 0.0
2018-Jun-24 23:56N 38°42' W 009°11'0 0.0
2018-Jun-24 23:29N 38°42' W 009°11'0 0.0
2018-Jun-24 22:59N 38°42' W 009°11'0 0.0
2018-Jun-24 22:23N 38°42' W 009°11'0 0.0
2018-Jun-24 21:47N 38°42' W 009°11'0 0.0
2018-Jun-24 21:26N 38°42' W 009°11'0 0.0
2018-Jun-24 20:59N 38°42' W 009°11'0 0.0
2018-Jun-24 20:26N 38°42' W 009°11'0 0.0
2018-Jun-24 19:56N 38°42' W 009°11'0 0.0
2018-Jun-24 19:29N 38°42' W 009°11'0 0.0
2018-Jun-24 18:32N 38°42' W 009°11'0 0.0
2018-Jun-24 18:26N 38°42' W 009°11'0 0.0
2018-Jun-24 17:59N 38°42' W 009°11'0 0.0
2018-Jun-24 17:19N 38°42' W 009°11'1 0.3
2018-Jun-24 12:10N 38°41' W 009°12'0 0.2
2018-Jun-24 09:58N 38°42' W 009°13'2 0.8
2018-Jun-24 07:51N 38°42' W 009°11'0 0.0
2018-Jun-24 06:39N 38°42' W 009°11'0 0.0
2018-Jun-24 06:21N 38°42' W 009°11'0 0.0
2018-Jun-23 23:54N 38°42' W 009°11'0 0.0
2018-Jun-23 20:43N 38°42' W 009°11'0 0.0
2018-Jun-23 20:24N 38°42' W 009°11'0 0.1
2018-Jun-23 17:17N 38°42' W 009°11'1 0.2
2018-Jun-23 14:15N 38°42' W 009°10'0 0.1
2018-Jun-23 13:54N 38°42' W 009°10'0 0.1
2018-Jun-23 11:56N 38°42' W 009°10'1 1.6
2018-Jun-23 11:29N 38°42' W 009°11'1 2.4
2018-Jun-23 10:55N 38°42' W 009°13'1 2.5
2018-Jun-23 10:30N 38°42' W 009°11'2 2.7
2018-Jun-23 09:38N 38°42' W 009°09'1 5.1
2018-Jun-23 09:29N 38°42' W 009°10'1 0.8
2018-Jun-23 08:25N 38°42' W 009°11'1 0.3
2018-Jun-23 03:35N 38°42' W 009°09'1 9.6
2018-Jun-23 03:27N 38°42' W 009°11'0 0.0
2018-Jun-23 02:45N 38°42' W 009°11'0 0.7
2018-Jun-23 02:30N 38°42' W 009°11'0 0.0
2018-Jun-22 18:41N 38°42' W 009°11'2 3.2
2018-Jun-22 18:11N 38°42' W 009°13'2 9.6
2018-Jun-22 17:59N 38°42' W 009°10'0 0.3
2018-Jun-22 17:29N 38°42' W 009°10'1 1.4
2018-Jun-22 16:30N 38°42' W 009°12'3 3.9
2018-Jun-22 15:48N 38°42' W 009°09'2 4.3
2018-Jun-22 15:24N 38°42' W 009°11'1 2.5
2018-Jun-22 14:59N 38°42' W 009°12'2 1.9
2018-Jun-22 13:44N 38°42' W 009°09'1 3.3
2018-Jun-22 13:20N 38°42' W 009°11'2 2.4
2018-Jun-22 12:36N 38°41' W 009°13'2 6.8
2018-Jun-22 12:18N 38°42' W 009°10'0 0.6
2018-Jun-22 11:49N 38°42' W 009°11'0 0.0
2018-Jun-22 11:27N 38°42' W 009°11'0 0.0
2018-Jun-22 10:41N 38°42' W 009°11'0 0.0
2018-Jun-22 10:29N 38°42' W 009°11'2 2.3
2018-Jun-22 09:41N 38°41' W 009°13'1 5.3
2018-Jun-22 09:25N 38°42' W 009°11'0 0.4
2018-Jun-22 08:20N 38°42' W 009°11'0 0.0
2018-Jun-22 07:59N 38°42' W 009°11'0 0.0
2018-Jun-22 07:17N 38°42' W 009°11'0 0.0
2018-Jun-22 06:53N 38°42' W 009°11'0 0.0
2018-Jun-22 06:26N 38°42' W 009°11'0 0.0
2018-Jun-22 06:00N 38°42' W 009°11'0 0.0
2018-Jun-22 04:02N 38°42' W 009°11'0 0.0
2018-Jun-22 03:56N 38°42' W 009°11'0 0.0
2018-Jun-22 03:20N 38°42' W 009°11'0 0.0
2018-Jun-22 02:47N 38°42' W 009°11'0 0.0
2018-Jun-22 02:20N 38°42' W 009°11'0 0.0
2018-Jun-22 01:53N 38°42' W 009°11'0 0.0
2018-Jun-22 01:20N 38°42' W 009°11'0 0.0
2018-Jun-22 00:41N 38°42' W 009°11'0 0.0
2018-Jun-22 00:17N 38°42' W 009°11'0 0.0
2018-Jun-21 23:56N 38°42' W 009°11'0 0.0
2018-Jun-21 23:20N 38°42' W 009°11'0 0.0
2018-Jun-21 22:35N 38°42' W 009°11'0 0.0
2018-Jun-21 22:29N 38°42' W 009°11'0 0.0
2018-Jun-21 21:14N 38°42' W 009°11'0 0.0
2018-Jun-21 19:52N 38°42' W 009°11'0 0.0
2018-Jun-21 19:28N 38°42' W 009°11'0 0.0
2018-Jun-21 18:58N 38°42' W 009°11'0 1.0
2018-Jun-21 18:30N 38°42' W 009°11'1 1.8
2018-Jun-21 17:56N 38°42' W 009°12'0 1.1
2018-Jun-21 17:30N 38°42' W 009°12'3 3.5
2018-Jun-21 16:43N 38°42' W 009°08'2 5.2
2018-Jun-21 16:23N 38°42' W 009°11'2 4.3
2018-Jun-21 15:58N 38°42' W 009°13'1 1.7
2018-Jun-21 15:27N 38°42' W 009°12'3 4.9
2018-Jun-21 14:56N 38°42' W 009°09'1 2.9
2018-Jun-21 14:29N 38°42' W 009°10'2 3.2
2018-Jun-21 13:48N 38°42' W 009°13'1 2.0
2018-Jun-21 13:26N 38°42' W 009°12'3 5.8
2018-Jun-21 12:58N 38°42' W 009°09'2 3.5
2018-Jun-21 12:30N 38°42' W 009°11'2 3.1
2018-Jun-21 11:56N 38°42' W 009°13'1 1.5
2018-Jun-21 11:27N 38°42' W 009°12'3 3.4
2018-Jun-21 10:38N 38°42' W 009°09'0 0.8
2018-Jun-21 10:23N 38°42' W 009°09'1 2.6
2018-Jun-21 09:59N 38°42' W 009°10'0 1.0
2018-Jun-21 09:30N 38°42' W 009°11'0 0.0
2018-Jun-21 09:00N 38°42' W 009°11'0 0.0
2018-Jun-21 08:18N 38°42' W 009°11'0 0.0
2018-Jun-21 07:51N 38°42' W 009°11'0 0.0
2018-Jun-21 07:21N 38°42' W 009°11'0 0.0
2018-Jun-21 06:43N 38°42' W 009°11'0 0.0
2018-Jun-21 05:40N 38°42' W 009°11'0 0.0
2018-Jun-21 05:28N 38°42' W 009°11'0 0.0
2018-Jun-21 04:58N 38°42' W 009°11'0 0.0
2018-Jun-21 04:13N 38°42' W 009°11'0 0.0
2018-Jun-21 03:55N 38°42' W 009°11'0 0.0
2018-Jun-21 03:13N 38°42' W 009°11'0 0.0
2018-Jun-21 02:58N 38°42' W 009°11'0 0.0
2018-Jun-21 02:28N 38°42' W 009°11'0 0.0
2018-Jun-21 01:58N 38°42' W 009°11'0 0.0
2018-Jun-21 01:30N 38°42' W 009°11'0 0.0
2018-Jun-21 00:57N 38°42' W 009°11'0 0.0
2018-Jun-21 00:30N 38°42' W 009°11'0 0.0
2018-Jun-20 23:57N 38°42' W 009°11'0 0.0
2018-Jun-20 23:30N 38°42' W 009°11'0 0.0
2018-Jun-20 22:51N 38°42' W 009°11'0 0.0
2018-Jun-20 22:27N 38°42' W 009°11'0 0.0
2018-Jun-20 22:00N 38°42' W 009°11'0 0.0
2018-Jun-20 21:30N 38°42' W 009°11'0 0.0
2018-Jun-20 21:00N 38°42' W 009°11'0 0.0
2018-Jun-20 20:30N 38°42' W 009°11'0 0.0
2018-Jun-20 19:57N 38°42' W 009°11'0 0.0
2018-Jun-20 19:29N 38°42' W 009°11'0 0.0
2018-Jun-20 19:00N 38°42' W 009°11'0 0.0
2018-Jun-20 18:29N 38°42' W 009°11'0 0.0
2018-Jun-20 17:59N 38°42' W 009°11'2 1.4
2018-Jun-20 16:43N 38°42' W 009°13'1 4.0
2018-Jun-20 16:22N 38°42' W 009°11'1 3.8
2018-Jun-20 16:00N 38°41' W 009°13'2 4.3
2018-Jun-20 15:25N 38°42' W 009°10'1 0.4
2018-Jun-20 12:18N 38°42' W 009°11'1 0.5
2018-Jun-20 09:35N 38°42' W 009°09'219.5
2018-Jun-20 09:28N 38°41' W 009°12'1 1.3
2018-Jun-20 08:41N 38°41' W 009°13'1 1.3
2018-Jun-20 07:38N 38°41' W 009°11'2 0.1
2018-Jun-19 09:47N 38°42' W 009°09'1 5.2
2018-Jun-19 09:30N 38°42' W 009°10'2 1.4
2018-Jun-19 08:21N 38°41' W 009°12'1 0.3
2018-Jun-19 02:39N 38°42' W 009°11'1 0.1
2018-Jun-18 17:24N 38°42' W 009°10'1 0.6
2018-Jun-18 15:49N 38°42' W 009°09'1 0.6
2018-Jun-18 13:28N 38°42' W 009°10'1 0.9
2018-Jun-18 12:34N 38°42' W 009°11'0 0.4
2018-Jun-18 11:14N 38°42' W 009°12'3 2.2
2018-Jun-18 10:00N 38°42' W 009°09'2 3.8
2018-Jun-18 09:22N 38°42' W 009°11'1 0.1
2018-Jun-17 20:26N 38°42' W 009°11'0 0.0
2018-Jun-17 18:00N 38°42' W 009°11'0 0.5
2018-Jun-17 17:22N 38°42' W 009°11'2 3.6
2018-Jun-17 16:49N 38°42' W 009°09'3 4.5
2018-Jun-17 16:13N 38°42' W 009°12'1 1.7
2018-Jun-17 15:44N 38°41' W 009°13'1 4.6
2018-Jun-17 15:27N 38°42' W 009°11'2 3.2
2018-Jun-17 14:46N 38°42' W 009°09'1 4.1
2018-Jun-17 14:27N 38°42' W 009°10'2 1.9
2018-Jun-17 13:35N 38°42' W 009°12'1 6.1
2018-Jun-17 13:22N 38°42' W 009°11'2 2.8
2018-Jun-17 12:42N 38°42' W 009°08'2 6.4
2018-Jun-17 12:26N 38°42' W 009°10'2 4.0
2018-Jun-17 11:57N 38°42' W 009°13'1 1.6
2018-Jun-17 11:29N 38°42' W 009°12'3 3.5
2018-Jun-17 10:46N 38°42' W 009°09'3 1.8
2018-Jun-17 09:22N 38°42' W 009°12'1 0.1
2018-Jun-17 00:56N 38°42' W 009°11'1 0.2
2018-Jun-16 17:58N 38°42' W 009°09'1 1.9
2018-Jun-16 17:25N 38°42' W 009°10'2 4.5
2018-Jun-16 16:56N 38°42' W 009°13'1 2.9
2018-Jun-16 16:28N 38°42' W 009°11'2 4.4
2018-Jun-16 16:00N 38°42' W 009°09'1 1.6
2018-Jun-16 15:29N 38°42' W 009°10'3 5.0
2018-Jun-16 14:58N 38°42' W 009°13'2 3.3
2018-Jun-16 14:30N 38°42' W 009°11'2 2.8
2018-Jun-16 13:43N 38°42' W 009°08'2 6.1
2018-Jun-16 13:24N 38°42' W 009°11'2 2.7
2018-Jun-16 12:47N 38°41' W 009°13'1 4.1
2018-Jun-16 12:30N 38°42' W 009°11'2 3.3
2018-Jun-16 11:51N 38°42' W 009°09'1 3.1
2018-Jun-16 11:23N 38°42' W 009°10'2 3.4
2018-Jun-16 10:47N 38°42' W 009°13'1 2.3
2018-Jun-16 10:29N 38°42' W 009°12'3 4.7
2018-Jun-16 09:54N 38°42' W 009°09'1 3.5
2018-Jun-16 09:29N 38°42' W 009°10'2 3.8
2018-Jun-16 08:58N 38°42' W 009°13'1 2.1
2018-Jun-16 08:28N 38°42' W 009°12'1 1.2
2018-Jun-16 07:50N 38°42' W 009°11'0 0.0
2018-Jun-16 07:26N 38°42' W 009°11'0 0.0
2018-Jun-16 06:56N 38°42' W 009°11'0 0.0
2018-Jun-16 06:20N 38°42' W 009°11'0 0.0
2018-Jun-16 05:53N 38°42' W 009°11'0 0.0
2018-Jun-16 05:14N 38°42' W 009°11'0 0.0
2018-Jun-16 04:41N 38°42' W 009°11'0 0.0
2018-Jun-16 04:26N 38°42' W 009°11'0 0.0
2018-Jun-16 03:50N 38°42' W 009°11'0 0.0
2018-Jun-16 03:29N 38°42' W 009°11'0 0.0
2018-Jun-16 02:53N 38°42' W 009°11'0 0.0
2018-Jun-16 02:20N 38°42' W 009°11'0 0.0
2018-Jun-16 01:59N 38°42' W 009°11'0 0.0
2018-Jun-16 01:29N 38°42' W 009°11'0 0.0
2018-Jun-16 00:50N 38°42' W 009°11'0 0.0
2018-Jun-16 00:08N 38°42' W 009°11'0 0.0
2018-Jun-15 23:56N 38°42' W 009°11'0 0.0
2018-Jun-15 23:26N 38°42' W 009°11'0 0.0
2018-Jun-15 22:41N 38°42' W 009°11'0 0.0
2018-Jun-15 22:20N 38°42' W 009°11'0 0.0
2018-Jun-15 20:43N 38°42' W 009°11'0 0.0
2018-Jun-15 19:44N 38°42' W 009°11'0 0.0
2018-Jun-15 19:17N 38°42' W 009°11'0 0.0
2018-Jun-15 18:56N 38°42' W 009°11'1 2.7
2018-Jun-15 18:28N 38°42' W 009°09'0 0.6
2018-Jun-15 17:45N 38°42' W 009°08'1 3.9
2018-Jun-15 17:28N 38°42' W 009°10'  
Track history (hours):
 
Tides and Currents Weather Stations Pressure Air Temp Water Temp Dewpoint Dewpoint Depression Visibility Wind Speed Wind Dir Waves Ship Positions

Mh2 Luar

Last reported at 2018-Jun-25 17:27 UTC. Time now 2018-Jun-25 17:50 UTC.
Position N 38°42' W 009°11'.

Type: Passenger vessel. MMSI: 263753590.

Date/timePositionNaut miles runAvg speedWind from/ knotsBaromVisibWave heightAir tempDewpointWater temp
2018-Jun-25 17:27N 38°42' W 009°11'1 2.5
2018-Jun-25 17:00N 38°42' W 009°12'0 0.6
2018-Jun-25 16:30N 38°42' W 009°12'3 5.4
2018-Jun-25 15:59N 38°42' W 009°09'2 3.0
2018-Jun-25 15:28N 38°42' W 009°10'0 0.5
2018-Jun-25 15:00N 38°42' W 009°11'1 2.2
2018-Jun-25 14:30N 38°42' W 009°12'3 3.7
2018-Jun-25 13:42N 38°42' W 009°08'1 4.4
2018-Jun-25 13:29N 38°42' W 009°10'3 4.6
2018-Jun-25 12:55N 38°42' W 009°13'1 2.2
2018-Jun-25 12:30N 38°42' W 009°12'3 4.9
2018-Jun-25 11:59N 38°42' W 009°09'2 2.9
2018-Jun-25 11:22N 38°42' W 009°11'2 4.0
2018-Jun-25 10:57N 38°42' W 009°13'1 3.0
2018-Jun-25 10:28N 38°42' W 009°11'2 3.1
2018-Jun-25 09:49N 38°42' W 009°09'1 3.8
2018-Jun-25 09:30N 38°42' W 009°10'2 3.7
2018-Jun-25 08:53N 38°42' W 009°13'2 4.4
2018-Jun-25 08:29N 38°42' W 009°11'0 0.0
2018-Jun-25 07:50N 38°42' W 009°11'0 0.0
2018-Jun-25 07:26N 38°42' W 009°11'0 0.0
2018-Jun-25 06:59N 38°42' W 009°11'0 0.0
2018-Jun-25 06:20N 38°42' W 009°11'0 0.0
2018-Jun-25 05:47N 38°42' W 009°11'0 0.0
2018-Jun-25 05:26N 38°42' W 009°11'0 0.0
2018-Jun-25 04:59N 38°42' W 009°11'0 0.0
2018-Jun-25 04:23N 38°42' W 009°11'0 0.0
2018-Jun-25 03:59N 38°42' W 009°11'0 0.0
2018-Jun-25 03:14N 38°42' W 009°11'0 0.0
2018-Jun-25 02:59N 38°42' W 009°11'0 0.0
2018-Jun-25 02:26N 38°42' W 009°11'0 0.0
2018-Jun-25 01:56N 38°42' W 009°11'0 0.0
2018-Jun-25 01:08N 38°42' W 009°11'0 0.0
2018-Jun-25 00:43N 38°42' W 009°11'0 0.0
2018-Jun-25 00:23N 38°42' W 009°11'0 0.0
2018-Jun-24 23:56N 38°42' W 009°11'0 0.0
2018-Jun-24 23:29N 38°42' W 009°11'0 0.0
2018-Jun-24 22:59N 38°42' W 009°11'0 0.0
2018-Jun-24 22:23N 38°42' W 009°11'0 0.0
2018-Jun-24 21:47N 38°42' W 009°11'0 0.0
2018-Jun-24 21:26N 38°42' W 009°11'0 0.0
2018-Jun-24 20:59N 38°42' W 009°11'0 0.0
2018-Jun-24 20:26N 38°42' W 009°11'0 0.0
2018-Jun-24 19:56N 38°42' W 009°11'0 0.0
2018-Jun-24 19:29N 38°42' W 009°11'0 0.0
2018-Jun-24 18:32N 38°42' W 009°11'0 0.0
2018-Jun-24 18:26N 38°42' W 009°11'0 0.0
2018-Jun-24 17:59N 38°42' W 009°11'0 0.0
2018-Jun-24 17:19N 38°42' W 009°11'1 0.3
2018-Jun-24 12:10N 38°41' W 009°12'0 0.2
2018-Jun-24 09:58N 38°42' W 009°13'2 0.8
2018-Jun-24 07:51N 38°42' W 009°11'0 0.0
2018-Jun-24 06:39N 38°42' W 009°11'0 0.0
2018-Jun-24 06:21N 38°42' W 009°11'0 0.0
2018-Jun-23 23:54N 38°42' W 009°11'0 0.0
2018-Jun-23 20:43N 38°42' W 009°11'0 0.0
2018-Jun-23 20:24N 38°42' W 009°11'0 0.1
2018-Jun-23 17:17N 38°42' W 009°11'1 0.2
2018-Jun-23 14:15N 38°42' W 009°10'0 0.1
2018-Jun-23 13:54N 38°42' W 009°10'0 0.1
2018-Jun-23 11:56N 38°42' W 009°10'1 1.6
2018-Jun-23 11:29N 38°42' W 009°11'1 2.4
2018-Jun-23 10:55N 38°42' W 009°13'1 2.5
2018-Jun-23 10:30N 38°42' W 009°11'2 2.7
2018-Jun-23 09:38N 38°42' W 009°09'1 5.1
2018-Jun-23 09:29N 38°42' W 009°10'1 0.8
2018-Jun-23 08:25N 38°42' W 009°11'1 0.3
2018-Jun-23 03:35N 38°42' W 009°09'1 9.6
2018-Jun-23 03:27N 38°42' W 009°11'0 0.0
2018-Jun-23 02:45N 38°42' W 009°11'0 0.7
2018-Jun-23 02:30N 38°42' W 009°11'0 0.0
2018-Jun-22 18:41N 38°42' W 009°11'2 3.2
2018-Jun-22 18:11N 38°42' W 009°13'2 9.6
2018-Jun-22 17:59N 38°42' W 009°10'0 0.3
2018-Jun-22 17:29N 38°42' W 009°10'1 1.4
2018-Jun-22 16:30N 38°42' W 009°12'3 3.9
2018-Jun-22 15:48N 38°42' W 009°09'2 4.3
2018-Jun-22 15:24N 38°42' W 009°11'1 2.5
2018-Jun-22 14:59N 38°42' W 009°12'2 1.9
2018-Jun-22 13:44N 38°42' W 009°09'1 3.3
2018-Jun-22 13:20N 38°42' W 009°11'2 2.4
2018-Jun-22 12:36N 38°41' W 009°13'2 6.8
2018-Jun-22 12:18N 38°42' W 009°10'0 0.6
2018-Jun-22 11:49N 38°42' W 009°11'0 0.0
2018-Jun-22 11:27N 38°42' W 009°11'0 0.0
2018-Jun-22 10:41N 38°42' W 009°11'0 0.0
2018-Jun-22 10:29N 38°42' W 009°11'2 2.3
2018-Jun-22 09:41N 38°41' W 009°13'1 5.3
2018-Jun-22 09:25N 38°42' W 009°11'0 0.4
2018-Jun-22 08:20N 38°42' W 009°11'0 0.0
2018-Jun-22 07:59N 38°42' W 009°11'0 0.0
2018-Jun-22 07:17N 38°42' W 009°11'0 0.0
2018-Jun-22 06:53N 38°42' W 009°11'0 0.0
2018-Jun-22 06:26N 38°42' W 009°11'0 0.0
2018-Jun-22 06:00N 38°42' W 009°11'0 0.0
2018-Jun-22 04:02N 38°42' W 009°11'0 0.0
2018-Jun-22 03:56N 38°42' W 009°11'0 0.0
2018-Jun-22 03:20N 38°42' W 009°11'0 0.0
2018-Jun-22 02:47N 38°42' W 009°11'0 0.0
2018-Jun-22 02:20N 38°42' W 009°11'0 0.0
2018-Jun-22 01:53N 38°42' W 009°11'0 0.0
2018-Jun-22 01:20N 38°42' W 009°11'0 0.0
2018-Jun-22 00:41N 38°42' W 009°11'0 0.0
2018-Jun-22 00:17N 38°42' W 009°11'0 0.0
2018-Jun-21 23:56N 38°42' W 009°11'0 0.0
2018-Jun-21 23:20N 38°42' W 009°11'0 0.0
2018-Jun-21 22:35N 38°42' W 009°11'0 0.0
2018-Jun-21 22:29N 38°42' W 009°11'0 0.0
2018-Jun-21 21:14N 38°42' W 009°11'0 0.0
2018-Jun-21 19:52N 38°42' W 009°11'0 0.0
2018-Jun-21 19:28N 38°42' W 009°11'0 0.0
2018-Jun-21 18:58N 38°42' W 009°11'0 1.0
2018-Jun-21 18:30N 38°42' W 009°11'1 1.8
2018-Jun-21 17:56N 38°42' W 009°12'0 1.1
2018-Jun-21 17:30N 38°42' W 009°12'3 3.5
2018-Jun-21 16:43N 38°42' W 009°08'2 5.2
2018-Jun-21 16:23N 38°42' W 009°11'2 4.3
2018-Jun-21 15:58N 38°42' W 009°13'1 1.7
2018-Jun-21 15:27N 38°42' W 009°12'3 4.9
2018-Jun-21 14:56N 38°42' W 009°09'1 2.9
2018-Jun-21 14:29N 38°42' W 009°10'2 3.2
2018-Jun-21 13:48N 38°42' W 009°13'1 2.0
2018-Jun-21 13:26N 38°42' W 009°12'3 5.8
2018-Jun-21 12:58N 38°42' W 009°09'2 3.5
2018-Jun-21 12:30N 38°42' W 009°11'2 3.1
2018-Jun-21 11:56N 38°42' W 009°13'1 1.5
2018-Jun-21 11:27N 38°42' W 009°12'3 3.4
2018-Jun-21 10:38N 38°42' W 009°09'0 0.8
2018-Jun-21 10:23N 38°42' W 009°09'1 2.6
2018-Jun-21 09:59N 38°42' W 009°10'0 1.0
2018-Jun-21 09:30N 38°42' W 009°11'0 0.0
2018-Jun-21 09:00N 38°42' W 009°11'0 0.0
2018-Jun-21 08:18N 38°42' W 009°11'0 0.0
2018-Jun-21 07:51N 38°42' W 009°11'0 0.0
2018-Jun-21 07:21N 38°42' W 009°11'0 0.0
2018-Jun-21 06:43N 38°42' W 009°11'0 0.0
2018-Jun-21 05:40N 38°42' W 009°11'0 0.0
2018-Jun-21 05:28N 38°42' W 009°11'0 0.0
2018-Jun-21 04:58N 38°42' W 009°11'0 0.0
2018-Jun-21 04:13N 38°42' W 009°11'0 0.0
2018-Jun-21 03:55N 38°42' W 009°11'0 0.0
2018-Jun-21 03:13N 38°42' W 009°11'0 0.0
2018-Jun-21 02:58N 38°42' W 009°11'0 0.0
2018-Jun-21 02:28N 38°42' W 009°11'0 0.0
2018-Jun-21 01:58N 38°42' W 009°11'0 0.0
2018-Jun-21 01:30N 38°42' W 009°11'0 0.0
2018-Jun-21 00:57N 38°42' W 009°11'0 0.0
2018-Jun-21 00:30N 38°42' W 009°11'0 0.0
2018-Jun-20 23:57N 38°42' W 009°11'0 0.0
2018-Jun-20 23:30N 38°42' W 009°11'0 0.0
2018-Jun-20 22:51N 38°42' W 009°11'0 0.0
2018-Jun-20 22:27N 38°42' W 009°11'0 0.0
2018-Jun-20 22:00N 38°42' W 009°11'0 0.0
2018-Jun-20 21:30N 38°42' W 009°11'0 0.0
2018-Jun-20 21:00N 38°42' W 009°11'0 0.0
2018-Jun-20 20:30N 38°42' W 009°11'0 0.0
2018-Jun-20 19:57N 38°42' W 009°11'0 0.0
2018-Jun-20 19:29N 38°42' W 009°11'0 0.0
2018-Jun-20 19:00N 38°42' W 009°11'0 0.0
2018-Jun-20 18:29N 38°42' W 009°11'0 0.0
2018-Jun-20 17:59N 38°42' W 009°11'2 1.4
2018-Jun-20 16:43N 38°42' W 009°13'1 4.0
2018-Jun-20 16:22N 38°42' W 009°11'1 3.8
2018-Jun-20 16:00N 38°41' W 009°13'2 4.3
2018-Jun-20 15:25N 38°42' W 009°10'1 0.4
2018-Jun-20 12:18N 38°42' W 009°11'1 0.5
2018-Jun-20 09:35N 38°42' W 009°09'219.5
2018-Jun-20 09:28N 38°41' W 009°12'1 1.3
2018-Jun-20 08:41N 38°41' W 009°13'1 1.3
2018-Jun-20 07:38N 38°41' W 009°11'2 0.1
2018-Jun-19 09:47N 38°42' W 009°09'1 5.2
2018-Jun-19 09:30N 38°42' W 009°10'2 1.4
2018-Jun-19 08:21N 38°41' W 009°12'1 0.3
2018-Jun-19 02:39N 38°42' W 009°11'1 0.1
2018-Jun-18 17:24N 38°42' W 009°10'1 0.6
2018-Jun-18 15:49N 38°42' W 009°09'1 0.6
2018-Jun-18 13:28N 38°42' W 009°10'1 0.9
2018-Jun-18 12:34N 38°42' W 009°11'0 0.4
2018-Jun-18 11:14N 38°42' W 009°12'3 2.2
2018-Jun-18 10:00N 38°42' W 009°09'2 3.8
2018-Jun-18 09:22N 38°42' W 009°11'1 0.1
2018-Jun-17 20:26N 38°42' W 009°11'0 0.0
2018-Jun-17 18:00N 38°42' W 009°11'0 0.5
2018-Jun-17 17:22N 38°42' W 009°11'2 3.6
2018-Jun-17 16:49N 38°42' W 009°09'3 4.5
2018-Jun-17 16:13N 38°42' W 009°12'1 1.7
2018-Jun-17 15:44N 38°41' W 009°13'1 4.6
2018-Jun-17 15:27N 38°42' W 009°11'2 3.2
2018-Jun-17 14:46N 38°42' W 009°09'1 4.1
2018-Jun-17 14:27N 38°42' W 009°10'2 1.9
2018-Jun-17 13:35N 38°42' W 009°12'1 6.1
2018-Jun-17 13:22N 38°42' W 009°11'2 2.8
2018-Jun-17 12:42N 38°42' W 009°08'2 6.4
2018-Jun-17 12:26N 38°42' W 009°10'2 4.0
2018-Jun-17 11:57N 38°42' W 009°13'1 1.6
2018-Jun-17 11:29N 38°42' W 009°12'3 3.5
2018-Jun-17 10:46N 38°42' W 009°09'3 1.8
2018-Jun-17 09:22N 38°42' W 009°12'1 0.1
2018-Jun-17 00:56N 38°42' W 009°11'1 0.2
2018-Jun-16 17:58N 38°42' W 009°09'1 1.9
2018-Jun-16 17:25N 38°42' W 009°10'2 4.5
2018-Jun-16 16:56N 38°42' W 009°13'1 2.9
2018-Jun-16 16:28N 38°42' W 009°11'2 4.4
2018-Jun-16 16:00N 38°42' W 009°09'1 1.6
2018-Jun-16 15:29N 38°42' W 009°10'3 5.0
2018-Jun-16 14:58N 38°42' W 009°13'2 3.3
2018-Jun-16 14:30N 38°42' W 009°11'2 2.8
2018-Jun-16 13:43N 38°42' W 009°08'2 6.1
2018-Jun-16 13:24N 38°42' W 009°11'2 2.7
2018-Jun-16 12:47N 38°41' W 009°13'1 4.1
2018-Jun-16 12:30N 38°42' W 009°11'2 3.3
2018-Jun-16 11:51N 38°42' W 009°09'1 3.1
2018-Jun-16 11:23N 38°42' W 009°10'2 3.4
2018-Jun-16 10:47N 38°42' W 009°13'1 2.3
2018-Jun-16 10:29N 38°42' W 009°12'3 4.7
2018-Jun-16 09:54N 38°42' W 009°09'1 3.5
2018-Jun-16 09:29N 38°42' W 009°10'2 3.8
2018-Jun-16 08:58N 38°42' W 009°13'1 2.1
2018-Jun-16 08:28N 38°42' W 009°12'1 1.2
2018-Jun-16 07:50N 38°42' W 009°11'0 0.0
2018-Jun-16 07:26N 38°42' W 009°11'0 0.0
2018-Jun-16 06:56N 38°42' W 009°11'0 0.0
2018-Jun-16 06:20N 38°42' W 009°11'0 0.0
2018-Jun-16 05:53N 38°42' W 009°11'0 0.0
2018-Jun-16 05:14N 38°42' W 009°11'0 0.0
2018-Jun-16 04:41N 38°42' W 009°11'0 0.0
2018-Jun-16 04:26N 38°42' W 009°11'0 0.0
2018-Jun-16 03:50N 38°42' W 009°11'0 0.0
2018-Jun-16 03:29N 38°42' W 009°11'0 0.0
2018-Jun-16 02:53N 38°42' W 009°11'0 0.0
2018-Jun-16 02:20N 38°42' W 009°11'0 0.0
2018-Jun-16 01:59N 38°42' W 009°11'0 0.0
2018-Jun-16 01:29N 38°42' W 009°11'0 0.0
2018-Jun-16 00:50N 38°42' W 009°11'0 0.0
2018-Jun-16 00:08N 38°42' W 009°11'0 0.0
2018-Jun-15 23:56N 38°42' W 009°11'0 0.0
2018-Jun-15 23:26N 38°42' W 009°11'0 0.0
2018-Jun-15 22:41N 38°42' W 009°11'0 0.0
2018-Jun-15 22:20N 38°42' W 009°11'0 0.0
2018-Jun-15 20:43N 38°42' W 009°11'0 0.0
2018-Jun-15 19:44N 38°42' W 009°11'0 0.0
2018-Jun-15 19:17N 38°42' W 009°11'0 0.0
2018-Jun-15 18:56N 38°42' W 009°11'1 2.7
2018-Jun-15 18:28N 38°42' W 009°09'0 0.6
2018-Jun-15 17:45N 38°42' W 009°08'1 3.9
2018-Jun-15 17:28N 38°42' W 009°10'  

Dump ship's entire track history